createdAt,value
2018-07-24T00:00:18.767Z,12.40
2018-07-24T00:01:18.803Z,12.30
2018-07-24T00:03:12.342Z,12.30
2018-07-24T00:04:12.366Z,12.50
2018-07-24T00:06:05.906Z,12.10
2018-07-24T00:07:05.936Z,12.00
2018-07-24T00:08:59.484Z,12.40
2018-07-24T00:09:59.506Z,12.50
2018-07-24T00:11:53.053Z,12.30
2018-07-24T00:12:53.079Z,12.60
2018-07-24T00:14:46.617Z,12.30
2018-07-24T00:15:46.649Z,12.50
2018-07-24T00:17:40.195Z,12.30
2018-07-24T00:18:40.218Z,11.60
2018-07-24T00:20:33.757Z,12.10
2018-07-24T00:21:33.788Z,12.20
2018-07-24T00:23:27.335Z,12.40
2018-07-24T00:24:27.357Z,12.20
2018-07-24T00:26:20.899Z,11.80
2018-07-24T00:27:20.930Z,12.40
2018-07-24T00:29:14.475Z,11.30
2018-07-24T00:30:14.505Z,11.30
2018-07-24T00:32:08.115Z,11.40
2018-07-24T00:33:08.072Z,11.50
2018-07-24T00:35:01.622Z,11.80
2018-07-24T00:36:01.648Z,12.70
2018-07-24T00:37:55.187Z,11.80
2018-07-24T00:38:55.217Z,11.40
2018-07-24T00:40:48.750Z,11.50
2018-07-24T00:41:48.781Z,12.10
2018-07-24T00:43:42.329Z,11.80
2018-07-24T00:44:42.352Z,11.60
2018-07-24T00:46:35.898Z,11.60
2018-07-24T00:47:35.935Z,12.20
2018-07-24T00:49:29.460Z,11.50
2018-07-24T00:50:29.495Z,11.90
2018-07-24T00:52:23.041Z,11.20
2018-07-24T00:53:23.062Z,11.80
2018-07-24T00:55:16.604Z,11.70
2018-07-24T00:56:16.634Z,11.30
2018-07-24T00:58:10.179Z,11.60
2018-07-24T00:59:10.203Z,11.60
2018-07-24T01:01:03.743Z,10.90
2018-07-24T01:02:03.774Z,11.70
2018-07-24T01:03:57.325Z,11.60
2018-07-24T01:04:57.345Z,11.30
2018-07-24T01:06:50.891Z,11.10
2018-07-24T01:07:50.915Z,11.00
2018-07-24T01:09:44.456Z,11.40
2018-07-24T01:10:44.485Z,11.40
2018-07-24T01:12:38.036Z,11.20
2018-07-24T01:13:38.055Z,11.50
2018-07-24T01:15:31.595Z,11.70
2018-07-24T01:16:31.625Z,11.90
2018-07-24T01:18:25.173Z,11.30
2018-07-24T01:19:25.197Z,11.60
2018-07-24T01:21:18.735Z,10.80
2018-07-24T01:22:18.767Z,11.00
2018-07-24T01:24:12.315Z,11.40
2018-07-24T01:25:12.340Z,11.40
2018-07-24T01:27:05.887Z,11.30
2018-07-24T01:28:05.909Z,11.00
2018-07-24T01:29:59.449Z,11.10
2018-07-24T01:30:59.484Z,10.80
2018-07-24T01:32:53.032Z,11.30
2018-07-24T01:33:53.056Z,11.50
2018-07-24T01:35:46.590Z,12.00
2018-07-24T01:36:46.620Z,11.60
2018-07-24T01:38:40.168Z,12.10
2018-07-24T01:39:40.189Z,11.10
2018-07-24T01:41:33.738Z,11.40
2018-07-24T01:42:33.761Z,11.40
2018-07-24T01:44:27.300Z,10.90
2018-07-24T01:45:27.331Z,11.60
2018-07-24T01:47:20.877Z,11.80
2018-07-24T01:48:20.902Z,11.40
2018-07-24T01:50:14.441Z,11.90
2018-07-24T01:51:14.472Z,11.40
2018-07-24T01:53:08.020Z,11.40
2018-07-24T01:54:08.041Z,11.50
2018-07-24T01:56:01.582Z,12.00
2018-07-24T01:57:01.615Z,11.90
2018-07-24T01:58:55.162Z,11.50
2018-07-24T01:59:55.183Z,11.70
2018-07-24T02:01:48.731Z,11.40
2018-07-24T02:02:48.755Z,10.80
2018-07-24T02:04:42.292Z,11.90
2018-07-24T02:05:42.323Z,11.20
2018-07-24T02:07:35.871Z,10.90
2018-07-24T02:08:35.893Z,10.80
2018-07-24T02:10:41.110Z,10.80
2018-07-24T02:11:41.140Z,10.60
2018-07-24T02:13:46.359Z,10.80
2018-07-24T02:14:46.382Z,11.00
2018-07-24T02:16:39.932Z,11.20
2018-07-24T02:17:39.952Z,10.80
2018-07-24T02:19:33.496Z,10.50
2018-07-24T02:20:33.524Z,10.80
2018-07-24T02:22:27.072Z,10.80
2018-07-24T02:23:27.093Z,10.50
2018-07-24T02:25:20.635Z,10.30
2018-07-24T02:26:20.671Z,10.40
2018-07-24T02:28:14.216Z,10.70
2018-07-24T02:29:14.234Z,11.00
2018-07-24T02:31:07.775Z,10.00
2018-07-24T02:32:07.805Z,10.80
2018-07-24T02:34:01.353Z,10.70
2018-07-24T02:35:01.392Z,10.90
2018-07-24T02:36:54.930Z,10.80
2018-07-24T02:37:54.947Z,10.50
2018-07-24T02:39:47.976Z,10.20
2018-07-24T02:40:48.007Z,11.30
2018-07-24T02:42:41.553Z,11.20
2018-07-24T02:43:41.575Z,10.60
2018-07-24T02:45:35.116Z,10.10
2018-07-24T02:46:35.145Z,10.50
2018-07-24T02:48:28.694Z,10.60
2018-07-24T02:49:28.716Z,10.70
2018-07-24T02:51:21.746Z,10.30
2018-07-24T02:52:21.775Z,9.80
2018-07-24T02:54:15.324Z,10.60
2018-07-24T02:55:15.345Z,10.50
2018-07-24T02:57:08.893Z,10.00
2018-07-24T02:58:08.916Z,9.70
2018-07-24T03:00:02.457Z,10.10
2018-07-24T03:01:02.487Z,9.90
2018-07-24T03:02:56.033Z,10.80
2018-07-24T03:03:56.059Z,10.50
2018-07-24T03:05:49.596Z,11.20
2018-07-24T03:06:49.627Z,10.80
2018-07-24T03:08:43.174Z,10.00
2018-07-24T03:09:43.197Z,10.50
2018-07-24T03:11:36.748Z,11.10
2018-07-24T03:12:36.768Z,10.80
2018-07-24T03:14:30.309Z,10.00
2018-07-24T03:15:30.340Z,10.20
2018-07-24T03:17:23.886Z,9.50
2018-07-24T03:18:23.911Z,10.20
2018-07-24T03:20:17.446Z,10.50
2018-07-24T03:21:17.472Z,10.20
2018-07-24T03:23:11.026Z,9.90
2018-07-24T03:24:11.050Z,9.70
2018-07-24T03:26:04.591Z,9.80
2018-07-24T03:27:04.620Z,10.00
2018-07-24T03:28:58.167Z,9.50
2018-07-24T03:29:58.190Z,10.40
2018-07-24T03:31:51.737Z,9.80
2018-07-24T03:32:51.762Z,10.10
2018-07-24T03:34:45.312Z,10.10
2018-07-24T03:35:45.330Z,9.80
2018-07-24T03:37:38.870Z,9.50
2018-07-24T03:38:38.902Z,9.60
2018-07-24T03:40:32.451Z,9.30
2018-07-24T03:41:32.473Z,9.80
2018-07-24T03:43:26.013Z,9.70
2018-07-24T03:44:26.042Z,9.90
2018-07-24T03:46:19.595Z,9.50
2018-07-24T03:47:19.615Z,10.00
2018-07-24T03:49:13.155Z,9.50
2018-07-24T03:50:13.183Z,9.40
2018-07-24T03:52:06.735Z,9.50
2018-07-24T03:53:06.755Z,10.00
2018-07-24T03:55:00.295Z,9.90
2018-07-24T03:56:00.324Z,9.60
2018-07-24T03:57:53.887Z,9.60
2018-07-24T03:58:53.894Z,9.60
2018-07-24T04:00:47.436Z,9.70
2018-07-24T04:01:47.465Z,8.90
2018-07-24T04:03:41.034Z,9.20
2018-07-24T04:04:41.040Z,9.40
2018-07-24T04:06:34.577Z,9.70
2018-07-24T04:07:34.607Z,8.80
2018-07-24T04:09:28.169Z,8.80
2018-07-24T04:10:28.179Z,9.10
2018-07-24T04:12:21.718Z,9.50
2018-07-24T04:13:21.750Z,9.60
2018-07-24T04:15:15.295Z,9.20
2018-07-24T04:16:15.318Z,8.70
2018-07-24T04:18:08.858Z,8.90
2018-07-24T04:19:08.889Z,9.40
2018-07-24T04:21:02.441Z,8.80
2018-07-24T04:22:02.464Z,9.50
2018-07-24T04:23:56.000Z,9.20
2018-07-24T04:24:56.030Z,9.30
2018-07-24T04:26:49.584Z,9.00
2018-07-24T04:27:49.602Z,9.30
2018-07-24T04:29:43.148Z,9.20
2018-07-24T04:30:43.203Z,8.80
2018-07-24T04:32:36.720Z,9.10
2018-07-24T04:33:36.741Z,9.10
2018-07-24T04:35:30.281Z,9.00
2018-07-24T04:36:30.312Z,8.70
2018-07-24T04:38:23.864Z,8.60
2018-07-24T04:39:23.886Z,8.90
2018-07-24T04:41:17.421Z,9.00
2018-07-24T04:42:17.452Z,8.80
2018-07-24T04:44:11.004Z,9.20
2018-07-24T04:45:11.023Z,8.70
2018-07-24T04:47:04.562Z,9.00
2018-07-24T04:48:04.594Z,9.10
2018-07-24T04:49:57.629Z,9.00
2018-07-24T04:50:57.652Z,9.30
2018-07-24T04:52:51.192Z,8.80
2018-07-24T04:53:51.223Z,8.70
2018-07-24T04:55:44.775Z,8.70
2018-07-24T04:56:44.794Z,8.80
2018-07-24T04:58:38.435Z,8.70
2018-07-24T04:59:38.466Z,9.10
2018-07-24T05:01:32.022Z,9.20
2018-07-24T05:02:32.075Z,8.90
2018-07-24T05:04:25.576Z,8.80
2018-07-24T05:05:25.608Z,8.40
2018-07-24T05:07:19.155Z,9.00
2018-07-24T05:08:19.182Z,8.60
2018-07-24T05:10:12.729Z,8.80
2018-07-24T05:11:12.750Z,9.10
2018-07-24T05:13:06.298Z,8.20
2018-07-24T05:14:06.318Z,8.40
2018-07-24T05:15:59.858Z,8.80
2018-07-24T05:16:59.899Z,8.00
2018-07-24T05:18:53.441Z,8.70
2018-07-24T05:19:53.459Z,8.20
2018-07-24T05:21:47.015Z,10.30
2018-07-24T05:22:47.031Z,9.70
2018-07-24T05:24:40.586Z,10.30
2018-07-24T05:25:40.604Z,10.00
2018-07-24T05:27:34.140Z,10.90
2018-07-24T05:28:34.174Z,11.60
2018-07-24T05:30:27.721Z,11.20
2018-07-24T05:31:27.741Z,10.70
2018-07-24T05:33:21.282Z,10.60
2018-07-24T05:34:21.314Z,10.60
2018-07-24T05:36:14.863Z,10.40
2018-07-24T05:37:14.882Z,10.50
2018-07-24T05:39:08.423Z,13.20
2018-07-24T05:40:08.454Z,13.90
2018-07-24T05:42:02.003Z,13.10
2018-07-24T05:43:02.029Z,11.30
2018-07-24T05:44:56.588Z,11.90
2018-07-24T05:45:56.618Z,11.00
2018-07-24T05:47:50.169Z,12.70
2018-07-24T05:48:50.227Z,11.20
2018-07-24T05:50:43.728Z,23.00
2018-07-24T05:51:43.758Z,23.90
2018-07-24T05:53:37.310Z,15.20
2018-07-24T05:54:37.329Z,11.70
2018-07-24T05:56:30.869Z,150.10
2018-07-24T05:57:30.900Z,89.50
2018-07-24T05:59:24.446Z,63.00
2018-07-24T06:00:24.474Z,55.00
2018-07-24T06:02:18.654Z,70.20
2018-07-24T06:03:18.656Z,67.50
2018-07-24T06:05:12.206Z,64.70
2018-07-24T06:06:12.228Z,67.50
2018-07-24T06:08:05.766Z,68.90
2018-07-24T06:09:05.797Z,60.90
2018-07-24T06:10:59.351Z,55.90
2018-07-24T06:11:59.369Z,62.30
2018-07-24T06:13:52.912Z,58.60
2018-07-24T06:14:52.940Z,59.40
2018-07-24T06:16:46.545Z,65.00
2018-07-24T06:17:46.508Z,58.30
2018-07-24T06:19:40.055Z,57.90
2018-07-24T06:20:40.079Z,63.70
2018-07-24T06:22:33.633Z,54.50
2018-07-24T06:23:33.669Z,59.10
2018-07-24T06:25:27.188Z,56.10
2018-07-24T06:26:27.218Z,57.70
2018-07-24T06:28:20.772Z,59.00
2018-07-24T06:29:20.824Z,52.10
2018-07-24T06:31:14.347Z,53.80
2018-07-24T06:32:14.360Z,55.30
2018-07-24T06:34:08.373Z,46.90
2018-07-24T06:35:08.046Z,53.00
2018-07-24T06:37:01.574Z,54.00
2018-07-24T06:38:01.604Z,53.00
2018-07-24T06:39:55.153Z,52.00
2018-07-24T06:40:55.176Z,51.90
2018-07-24T06:42:48.713Z,51.50
2018-07-24T06:43:48.746Z,45.30
2018-07-24T06:45:42.292Z,46.70
2018-07-24T06:46:42.317Z,46.50
2018-07-24T06:48:35.853Z,47.60
2018-07-24T06:49:35.885Z,42.10
2018-07-24T06:51:29.492Z,45.30
2018-07-24T06:52:29.460Z,41.50
2018-07-24T06:54:22.995Z,47.10
2018-07-24T06:55:23.027Z,44.20
2018-07-24T06:57:16.595Z,44.90
2018-07-24T06:58:16.600Z,45.60
2018-07-24T07:00:10.135Z,40.60
2018-07-24T07:01:10.168Z,39.60
2018-07-24T07:03:03.718Z,40.30
2018-07-24T07:04:03.742Z,44.60
2018-07-24T07:05:57.276Z,39.40
2018-07-24T07:06:57.308Z,39.40
2018-07-24T07:08:50.872Z,42.70
2018-07-24T07:09:50.880Z,42.10
2018-07-24T07:11:44.420Z,39.80
2018-07-24T07:12:44.448Z,40.70
2018-07-24T07:14:38.018Z,39.00
2018-07-24T07:15:38.019Z,41.90
2018-07-24T07:17:31.560Z,36.90
2018-07-24T07:18:31.591Z,38.60
2018-07-24T07:20:25.170Z,34.90
2018-07-24T07:21:25.161Z,41.10
2018-07-24T07:23:18.730Z,36.50
2018-07-24T07:24:18.731Z,36.60
2018-07-24T07:26:11.881Z,38.20
2018-07-24T07:27:11.793Z,37.00
2018-07-24T07:29:05.391Z,31.60
2018-07-24T07:30:05.358Z,34.60
2018-07-24T07:31:58.914Z,35.40
2018-07-24T07:32:58.933Z,34.10
2018-07-24T07:34:52.468Z,34.10
2018-07-24T07:35:52.502Z,33.50
2018-07-24T07:37:46.048Z,35.30
2018-07-24T07:38:46.071Z,34.90
2018-07-24T07:40:39.099Z,32.20
2018-07-24T07:41:39.129Z,35.10
2018-07-24T07:43:32.681Z,31.60
2018-07-24T07:44:32.713Z,33.00
2018-07-24T07:46:26.239Z,31.30
2018-07-24T07:47:26.271Z,34.20
2018-07-24T07:49:19.316Z,33.20
2018-07-24T07:50:19.329Z,32.60
2018-07-24T07:52:12.869Z,30.00
2018-07-24T07:53:12.899Z,30.30
2018-07-24T07:55:06.448Z,30.20
2018-07-24T07:56:06.471Z,33.10
2018-07-24T07:58:00.008Z,30.50
2018-07-24T07:59:00.045Z,29.90
2018-07-24T08:00:53.597Z,27.10
2018-07-24T08:01:53.612Z,28.00
2018-07-24T08:03:47.149Z,30.50
2018-07-24T08:04:47.182Z,29.40
2018-07-24T08:06:40.733Z,30.30
2018-07-24T08:07:40.754Z,28.00
2018-07-24T08:09:34.292Z,30.50
2018-07-24T08:10:34.327Z,28.90
2018-07-24T08:12:27.946Z,27.90
2018-07-24T08:13:27.896Z,26.30
2018-07-24T08:15:21.438Z,28.60
2018-07-24T08:16:21.464Z,28.40
2018-07-24T08:18:15.015Z,25.50
2018-07-24T08:19:15.034Z,30.20
2018-07-24T08:21:08.582Z,27.10
2018-07-24T08:22:08.621Z,26.10
2018-07-24T08:24:02.158Z,26.50
2018-07-24T08:25:02.178Z,27.60
2018-07-24T08:26:55.713Z,26.20
2018-07-24T08:27:55.823Z,26.00
2018-07-24T08:29:49.294Z,26.50
2018-07-24T08:30:49.317Z,25.80
2018-07-24T08:32:42.854Z,27.30
2018-07-24T08:33:42.902Z,25.00
2018-07-24T08:35:36.442Z,25.80
2018-07-24T08:36:36.460Z,26.30
2018-07-24T08:38:29.996Z,25.00
2018-07-24T08:39:30.032Z,24.90
2018-07-24T08:41:23.582Z,26.30
2018-07-24T08:42:23.597Z,25.00
2018-07-24T08:44:17.139Z,25.80
2018-07-24T08:45:17.168Z,25.40
2018-07-24T08:47:10.717Z,24.60
2018-07-24T08:48:10.741Z,23.40
2018-07-24T08:50:04.278Z,25.30
2018-07-24T08:51:04.310Z,26.30
2018-07-24T08:52:57.905Z,25.10
2018-07-24T08:53:58.113Z,23.80
2018-07-24T08:55:51.423Z,22.90
2018-07-24T08:56:51.450Z,22.00
2018-07-24T08:58:45.005Z,23.50
2018-07-24T08:59:45.022Z,24.80
2018-07-24T09:01:38.560Z,24.00
2018-07-24T09:02:38.593Z,23.50
2018-07-24T09:04:32.145Z,22.90
2018-07-24T09:05:32.162Z,23.90
2018-07-24T09:07:25.700Z,25.30
2018-07-24T09:08:25.735Z,23.60
2018-07-24T09:10:19.347Z,21.20
2018-07-24T09:11:19.303Z,21.90
2018-07-24T09:13:12.844Z,21.90
2018-07-24T09:14:12.873Z,20.20
2018-07-24T09:16:06.427Z,22.50
2018-07-24T09:17:06.449Z,22.20
2018-07-24T09:18:59.984Z,20.30
2018-07-24T09:20:00.016Z,20.90
2018-07-24T09:21:53.565Z,20.40
2018-07-24T09:22:53.589Z,22.90
2018-07-24T09:24:47.129Z,21.40
2018-07-24T09:25:47.154Z,21.10
2018-07-24T09:27:40.710Z,19.80
2018-07-24T09:28:40.727Z,20.10
2018-07-24T09:30:34.292Z,20.50
2018-07-24T09:31:34.297Z,19.90
2018-07-24T09:33:27.849Z,21.00
2018-07-24T09:34:27.866Z,20.20
2018-07-24T09:36:21.404Z,19.20
2018-07-24T09:37:21.437Z,22.80
2018-07-24T09:39:14.985Z,19.90
2018-07-24T09:40:15.009Z,21.50
2018-07-24T09:42:08.553Z,20.10
2018-07-24T09:43:08.613Z,20.00
2018-07-24T09:45:02.127Z,19.80
2018-07-24T09:46:02.152Z,20.90
2018-07-24T09:47:55.688Z,20.20
2018-07-24T09:48:55.718Z,18.70
2018-07-24T09:50:49.268Z,19.80
2018-07-24T09:51:49.290Z,20.40
2018-07-24T09:53:42.828Z,19.00
2018-07-24T09:54:42.859Z,18.00
2018-07-24T09:56:36.407Z,19.50
2018-07-24T09:57:36.433Z,18.90
2018-07-24T09:59:29.969Z,17.90
2018-07-24T10:00:30.005Z,19.50
2018-07-24T10:02:23.548Z,18.10
2018-07-24T10:03:23.571Z,18.70
2018-07-24T10:05:17.175Z,18.60
2018-07-24T10:06:17.142Z,17.70
2018-07-24T10:08:10.697Z,17.50
2018-07-24T10:09:10.714Z,17.90
2018-07-24T10:11:04.295Z,17.50
2018-07-24T10:12:04.305Z,17.90
2018-07-24T10:13:57.833Z,17.30
2018-07-24T10:14:57.853Z,16.30
2018-07-24T10:16:51.454Z,16.60
2018-07-24T10:17:51.424Z,18.10
2018-07-24T10:19:44.977Z,17.30
2018-07-24T10:20:44.994Z,16.60
2018-07-24T10:22:38.535Z,18.10
2018-07-24T10:23:38.564Z,17.50
2018-07-24T10:25:32.118Z,18.10
2018-07-24T10:26:32.135Z,17.20
2018-07-24T10:28:25.679Z,17.20
2018-07-24T10:29:25.708Z,16.00
2018-07-24T10:31:19.254Z,17.10
2018-07-24T10:32:19.275Z,15.20
2018-07-24T10:34:12.302Z,15.70
2018-07-24T10:35:12.334Z,16.80
2018-07-24T10:37:05.888Z,17.80
2018-07-24T10:38:05.904Z,17.60
2018-07-24T10:39:59.441Z,17.50
2018-07-24T10:40:59.481Z,18.60
2018-07-24T10:42:52.516Z,16.60
2018-07-24T10:43:52.538Z,17.30
2018-07-24T10:45:46.072Z,15.90
2018-07-24T10:46:46.104Z,16.60
2018-07-24T10:48:39.649Z,16.70
2018-07-24T10:49:39.674Z,16.20
2018-07-24T10:51:33.222Z,15.40
2018-07-24T10:52:33.244Z,16.00
2018-07-24T10:54:26.796Z,17.50
2018-07-24T10:55:26.817Z,15.00
2018-07-24T10:57:20.352Z,15.10
2018-07-24T10:58:20.384Z,14.50
2018-07-24T11:00:13.938Z,15.50
2018-07-24T11:01:13.955Z,14.90
2018-07-24T11:03:07.496Z,15.20
2018-07-24T11:04:07.527Z,15.70
2018-07-24T11:06:01.075Z,17.50
2018-07-24T11:07:01.102Z,13.70
2018-07-24T11:08:54.635Z,15.20
2018-07-24T11:09:54.667Z,13.60
2018-07-24T11:11:48.235Z,16.30
2018-07-24T11:12:48.239Z,14.40
2018-07-24T11:14:41.775Z,15.30
2018-07-24T11:15:41.808Z,15.70
2018-07-24T11:17:35.376Z,15.30
2018-07-24T11:18:35.379Z,13.90
2018-07-24T11:20:28.917Z,15.60
2018-07-24T11:21:28.977Z,14.80
2018-07-24T11:23:22.497Z,13.70
2018-07-24T11:24:22.521Z,14.20
2018-07-24T11:26:15.545Z,14.40
2018-07-24T11:27:15.613Z,14.10
2018-07-24T11:29:09.129Z,15.00
2018-07-24T11:30:09.148Z,13.80
2018-07-24T11:32:02.687Z,14.20
2018-07-24T11:33:02.775Z,14.80
2018-07-24T11:34:56.268Z,14.30
2018-07-24T11:35:56.471Z,13.30
2018-07-24T11:37:49.827Z,14.20
2018-07-24T11:38:49.869Z,13.30
2018-07-24T11:40:43.405Z,13.20
2018-07-24T11:41:43.430Z,12.20
2018-07-24T11:43:36.967Z,12.90
2018-07-24T11:44:37.001Z,13.30
2018-07-24T11:46:30.605Z,13.00
2018-07-24T11:47:30.569Z,14.00
2018-07-24T11:49:24.109Z,12.20
2018-07-24T11:50:24.143Z,13.30
2018-07-24T11:52:17.691Z,13.10
2018-07-24T11:53:17.711Z,14.40
2018-07-24T11:55:11.250Z,13.40
2018-07-24T11:56:11.282Z,11.90
2018-07-24T11:58:04.828Z,12.40
2018-07-24T11:59:04.854Z,12.50
2018-07-24T12:00:58.395Z,12.00
2018-07-24T12:01:58.425Z,12.70
2018-07-24T12:03:52.435Z,12.80
2018-07-24T12:04:52.049Z,13.30
2018-07-24T12:06:45.531Z,12.50
2018-07-24T12:07:45.642Z,13.20
2018-07-24T12:09:39.116Z,11.60
2018-07-24T12:10:39.133Z,12.20
2018-07-24T12:12:32.673Z,12.60
2018-07-24T12:13:32.707Z,12.70
2018-07-24T12:15:26.253Z,12.00
2018-07-24T12:16:26.275Z,11.90
2018-07-24T12:18:19.813Z,12.20
2018-07-24T12:19:19.845Z,11.70
2018-07-24T12:21:13.399Z,12.20
2018-07-24T12:22:13.418Z,12.80
2018-07-24T12:24:06.953Z,11.10
2018-07-24T12:25:06.987Z,13.00
2018-07-24T12:27:00.552Z,11.70
2018-07-24T12:28:00.557Z,10.70
2018-07-24T12:29:54.094Z,11.90
2018-07-24T12:30:54.128Z,13.10
2018-07-24T12:32:47.677Z,11.60
2018-07-24T12:33:47.698Z,12.00
2018-07-24T12:35:41.281Z,12.50
2018-07-24T12:36:41.270Z,11.80
2018-07-24T12:38:34.823Z,11.10
2018-07-24T12:39:34.841Z,11.40
2018-07-24T12:41:28.380Z,11.30
2018-07-24T12:42:28.409Z,11.50
2018-07-24T12:44:22.417Z,10.70
2018-07-24T12:45:21.979Z,12.00
2018-07-24T12:47:15.519Z,12.30
2018-07-24T12:48:15.550Z,11.50
2018-07-24T12:50:09.103Z,10.50
2018-07-24T12:51:09.125Z,11.70
2018-07-24T12:53:02.659Z,9.80
2018-07-24T12:54:02.692Z,10.70
2018-07-24T12:55:56.248Z,11.30
2018-07-24T12:56:56.258Z,11.00
2018-07-24T12:58:49.809Z,11.10
2018-07-24T12:59:49.834Z,10.70
2018-07-24T13:01:43.379Z,10.80
2018-07-24T13:02:43.404Z,9.80
2018-07-24T13:04:36.941Z,10.70
2018-07-24T13:05:36.984Z,10.50
2018-07-24T13:07:30.601Z,10.20
2018-07-24T13:08:30.543Z,9.70
2018-07-24T13:10:24.081Z,10.90
2018-07-24T13:11:24.119Z,10.20
2018-07-24T13:13:17.667Z,9.90
2018-07-24T13:14:17.688Z,10.40
2018-07-24T13:16:11.222Z,10.60
2018-07-24T13:17:11.256Z,10.90
2018-07-24T13:19:04.804Z,9.70
2018-07-24T13:20:04.847Z,10.90
2018-07-24T13:21:58.363Z,9.50
2018-07-24T13:22:58.391Z,9.50
2018-07-24T13:24:51.947Z,9.40
2018-07-24T13:25:51.967Z,9.90
2018-07-24T13:27:45.537Z,9.50
2018-07-24T13:28:45.536Z,10.00
2018-07-24T13:30:39.087Z,9.50
2018-07-24T13:31:39.142Z,10.00
2018-07-24T13:33:32.645Z,10.00
2018-07-24T13:34:32.678Z,9.60
2018-07-24T13:36:26.269Z,9.50
2018-07-24T13:37:26.293Z,9.40
2018-07-24T13:39:19.784Z,9.50
2018-07-24T13:40:19.819Z,9.60
2018-07-24T13:42:13.368Z,9.60
2018-07-24T13:43:13.389Z,9.10
2018-07-24T13:45:06.494Z,9.80
2018-07-24T13:46:06.514Z,9.90
2018-07-24T13:47:59.998Z,9.40
2018-07-24T13:49:00.018Z,11.10
2018-07-24T13:50:53.559Z,9.50
2018-07-24T13:51:53.633Z,9.20
2018-07-24T13:53:47.128Z,9.90
2018-07-24T13:54:47.161Z,9.10
2018-07-24T13:56:40.696Z,9.10
2018-07-24T13:57:40.728Z,9.20
2018-07-24T13:59:34.301Z,9.30
2018-07-24T14:00:34.306Z,9.70
2018-07-24T14:02:27.837Z,9.30
2018-07-24T14:03:27.869Z,9.00
2018-07-24T14:05:21.425Z,9.20
2018-07-24T14:06:21.441Z,9.40
2018-07-24T14:08:14.978Z,8.90
2018-07-24T14:09:15.011Z,8.90
2018-07-24T14:11:08.563Z,8.50
2018-07-24T14:12:08.583Z,9.30
2018-07-24T14:14:02.171Z,9.40
2018-07-24T14:15:02.151Z,9.00
2018-07-24T14:16:55.706Z,8.50
2018-07-24T14:17:55.722Z,9.40
2018-07-24T14:19:49.262Z,9.00
2018-07-24T14:20:49.292Z,8.80
2018-07-24T14:22:42.842Z,8.80
2018-07-24T14:23:42.867Z,9.00
2018-07-24T14:25:36.402Z,9.40
2018-07-24T14:26:36.435Z,8.80
2018-07-24T14:28:29.979Z,8.80
2018-07-24T14:29:30.003Z,8.80
2018-07-24T14:31:23.600Z,8.70
2018-07-24T14:32:23.579Z,8.50
2018-07-24T14:34:17.127Z,8.50
2018-07-24T14:35:17.145Z,9.00
2018-07-24T14:37:10.684Z,8.20
2018-07-24T14:38:10.716Z,8.80
2018-07-24T14:40:04.265Z,8.50
2018-07-24T14:41:04.287Z,8.60
2018-07-24T14:42:57.825Z,8.60
2018-07-24T14:43:57.857Z,8.50
2018-07-24T14:45:50.892Z,8.80
2018-07-24T14:46:50.916Z,8.10
2018-07-24T14:48:44.452Z,8.80
2018-07-24T14:49:44.487Z,8.50
2018-07-24T14:51:38.034Z,8.30
2018-07-24T14:52:38.111Z,8.30
2018-07-24T14:54:31.594Z,8.30
2018-07-24T14:55:31.627Z,7.80
2018-07-24T14:57:25.178Z,8.00
2018-07-24T14:58:25.204Z,8.50
2018-07-24T15:00:18.736Z,8.30
2018-07-24T15:01:18.769Z,8.20
2018-07-24T15:03:12.315Z,8.40
2018-07-24T15:04:12.340Z,8.20
2018-07-24T15:06:05.875Z,8.00
2018-07-24T15:07:05.909Z,8.00
2018-07-24T15:08:59.463Z,8.00
2018-07-24T15:09:59.477Z,8.30
2018-07-24T15:11:53.016Z,7.80
2018-07-24T15:12:53.050Z,8.00
2018-07-24T15:14:46.598Z,8.20
2018-07-24T15:15:46.621Z,8.20
2018-07-24T15:17:40.160Z,7.60
2018-07-24T15:18:40.191Z,8.40
2018-07-24T15:20:33.737Z,7.50
2018-07-24T15:21:33.760Z,8.20
2018-07-24T15:23:27.299Z,7.70
2018-07-24T15:24:27.334Z,7.80
2018-07-24T15:26:20.885Z,8.00
2018-07-24T15:27:20.900Z,7.40
2018-07-24T15:29:14.438Z,7.80
2018-07-24T15:30:14.474Z,7.90
2018-07-24T15:32:08.015Z,7.80
2018-07-24T15:33:08.042Z,7.90
2018-07-24T15:35:01.649Z,7.70
2018-07-24T15:36:01.614Z,7.80
2018-07-24T15:37:55.157Z,8.20
2018-07-24T15:38:55.182Z,7.40
2018-07-24T15:40:48.723Z,7.90
2018-07-24T15:41:48.755Z,7.50
2018-07-24T15:43:42.305Z,7.80
2018-07-24T15:44:42.324Z,7.30
2018-07-24T15:46:35.888Z,7.40
2018-07-24T15:47:35.895Z,8.00
2018-07-24T15:49:29.448Z,7.30
2018-07-24T15:50:29.465Z,7.80
2018-07-24T15:52:23.007Z,7.80
2018-07-24T15:53:23.037Z,8.00
2018-07-24T15:55:16.595Z,8.00
2018-07-24T15:56:16.608Z,7.20
2018-07-24T15:58:10.143Z,7.20
2018-07-24T15:59:10.177Z,7.20
2018-07-24T16:01:03.727Z,7.20
2018-07-24T16:02:03.747Z,7.70
2018-07-24T16:03:57.283Z,7.10
2018-07-24T16:04:57.317Z,7.10
2018-07-24T16:06:50.882Z,7.10
2018-07-24T16:07:50.886Z,7.50
2018-07-24T16:09:44.887Z,7.90
2018-07-24T16:10:44.456Z,7.50
2018-07-24T16:12:38.006Z,7.10
2018-07-24T16:13:38.029Z,7.50
2018-07-24T16:15:31.610Z,7.70
2018-07-24T16:16:31.601Z,7.70
2018-07-24T16:18:25.153Z,7.60
2018-07-24T16:19:25.168Z,7.50
2018-07-24T16:21:18.729Z,7.60
2018-07-24T16:22:18.740Z,6.80
2018-07-24T16:24:12.295Z,7.60
2018-07-24T16:25:12.309Z,7.80
2018-07-24T16:27:05.850Z,7.50
2018-07-24T16:28:05.881Z,7.60
2018-07-24T16:29:59.424Z,7.60
2018-07-24T16:30:59.451Z,7.20
2018-07-24T16:32:52.988Z,7.30
2018-07-24T16:33:53.021Z,7.60
2018-07-24T16:35:46.575Z,7.40
2018-07-24T16:36:46.591Z,7.60
2018-07-24T16:38:40.131Z,7.00
2018-07-24T16:39:40.162Z,7.60
2018-07-24T16:41:33.714Z,7.40
2018-07-24T16:42:33.734Z,7.60
2018-07-24T16:44:27.273Z,7.50
2018-07-24T16:45:27.303Z,7.70
2018-07-24T16:47:21.013Z,8.10
2018-07-24T16:48:21.038Z,8.70
2018-07-24T16:50:14.520Z,7.40
2018-07-24T16:51:14.546Z,7.60
2018-07-24T16:53:08.096Z,7.50
2018-07-24T16:54:08.119Z,7.70
2018-07-24T16:56:01.664Z,7.60
2018-07-24T16:57:01.687Z,7.70
2018-07-24T16:58:55.243Z,7.00
2018-07-24T16:59:55.257Z,7.30
2018-07-24T17:01:48.832Z,7.10
2018-07-24T17:02:48.859Z,7.80
2018-07-24T17:04:41.862Z,7.80
2018-07-24T17:05:41.886Z,7.30
2018-07-24T17:07:35.446Z,7.30
2018-07-24T17:08:35.456Z,7.20
2018-07-24T17:10:40.679Z,6.90
2018-07-24T17:11:40.700Z,7.30
2018-07-24T17:13:34.248Z,7.00
2018-07-24T17:14:34.270Z,7.20
2018-07-24T17:16:27.821Z,6.80
2018-07-24T17:17:27.841Z,7.00
2018-07-24T17:19:20.871Z,7.00
2018-07-24T17:20:20.901Z,7.00
2018-07-24T17:22:14.446Z,7.30
2018-07-24T17:23:14.471Z,6.90
2018-07-24T17:25:08.077Z,7.60
2018-07-24T17:26:08.115Z,7.10
2018-07-24T17:28:01.697Z,6.90
2018-07-24T17:29:01.718Z,6.90
2018-07-24T17:30:55.251Z,7.40
2018-07-24T17:31:55.352Z,7.50
2018-07-24T17:33:48.838Z,7.10
2018-07-24T17:34:48.852Z,6.70
2018-07-24T17:36:42.392Z,7.20
2018-07-24T17:37:42.425Z,7.10
2018-07-24T17:39:35.985Z,7.20
2018-07-24T17:40:36.155Z,6.80
2018-07-24T17:42:29.533Z,7.10
2018-07-24T17:43:29.555Z,7.50
2018-07-24T17:45:23.121Z,7.00
2018-07-24T17:46:23.138Z,7.10
2018-07-24T17:48:16.751Z,6.50
2018-07-24T17:49:16.705Z,6.70
2018-07-24T17:51:10.260Z,7.30
2018-07-24T17:52:10.276Z,6.90
2018-07-24T17:54:03.815Z,6.40
2018-07-24T17:55:03.851Z,7.00
2018-07-24T17:56:57.393Z,6.70
2018-07-24T17:57:57.419Z,6.90
2018-07-24T17:59:50.991Z,8.00
2018-07-24T18:00:50.987Z,7.00
2018-07-24T18:02:44.548Z,9.10
2018-07-24T18:03:44.559Z,8.20
2018-07-24T18:05:38.096Z,7.90
2018-07-24T18:06:38.129Z,8.00
2018-07-24T18:08:31.696Z,8.10
2018-07-24T18:09:31.701Z,7.90
2018-07-24T18:11:25.237Z,7.30
2018-07-24T18:12:25.272Z,7.30
2018-07-24T18:14:18.821Z,7.10
2018-07-24T18:15:18.842Z,6.90
2018-07-24T18:17:12.377Z,7.20
2018-07-24T18:18:12.414Z,7.30
2018-07-24T18:20:05.472Z,7.90
2018-07-24T18:21:05.478Z,7.30
2018-07-24T18:22:59.005Z,7.30
2018-07-24T18:23:59.039Z,7.40
2018-07-24T18:25:52.588Z,7.10
2018-07-24T18:26:52.616Z,7.10
2018-07-24T18:28:46.147Z,7.00
2018-07-24T18:29:46.184Z,7.80
2018-07-24T18:31:39.746Z,7.00
2018-07-24T18:32:39.760Z,7.70
2018-07-24T18:34:32.778Z,8.50
2018-07-24T18:35:32.810Z,7.90
2018-07-24T18:37:26.359Z,7.80
2018-07-24T18:38:26.382Z,7.90
2018-07-24T18:40:19.924Z,7.40
2018-07-24T18:41:19.951Z,7.10
2018-07-24T18:43:13.508Z,6.90
2018-07-24T18:44:13.553Z,7.50
2018-07-24T18:46:18.844Z,7.40
2018-07-24T18:47:18.868Z,7.40
2018-07-24T18:49:12.421Z,6.80
2018-07-24T18:50:12.441Z,6.60
2018-07-24T18:52:05.983Z,7.10